Aguadulce, Spain
Current Conditions -  °F | °C
As of 9:30 AM on Sunday 23 Nov 2014 (Local Time) from LEAM Reporting Station
Scattered Clouds Scattered Clouds  
Wind Chill: 72°   Ceiling: Unl
Heat Index: 72°   Visibility: 6mi
Dew Point: 52°   Wind: 9mph
Humidity: 50%   Direction: 50°NE
Pressure: 29.88"   Gusts: NA
Location:  36.81°N, 2.57°W
Report Text: LEAM 230830Z 05008KT 030V100 9999 FEW020 SCT090 22/11 Q1012
Loading
Personal Weather Stations






























Interactive Weather Map New forecast layout! Learn more

10-Day Weather Forecast

Advertisements
Track Severe Weather on mobile